استانبول, Turkey

01:52 PM +03 on ژانویه 17, 2017 (GMT +0300)
Ataturk | | Change Station

Elev 121 ft 40.97 °N, 28.82 °E | Updated 32 minutes ago

Light Rain
باران جزئى
48 °F
Feels Like 48 °F
N
8
باد متغير باد from شمال

امروز
High -- | Low -- °F
--% Chance of Precip.
دیروز
High -- | Low -- °F
Precip. -- در
فشار 30.04 در
ديد 4.3 مايل، ميل (در برابر كيلومتر
ابری ابرهای پراکنده 4000 ft
نيم ابرى 8000 ft
قطره شبنم 45 °F
رطوبت 87%
بارش باران 0.00 در
برف عمیق Not available.
8:26 AM 6:03 PM
Waning Gibbous, 73% visible
METAR LTBA 171020Z 36007KT 7000 -RA SCT040 OVC080 09/07 Q1017 NOSIG RMK RWY17L 01006KT RWY05 36006KT 280V030 RWY23 02006KT
فشار 30.04 در
ديد 4.3 مايل، ميل (در برابر كيلومتر
ابری ابرهای پراکنده 4000 ft
نيم ابرى 8000 ft
قطره شبنم 45 °F
رطوبت 87%
بارش باران 0.00 در
برف عمیق Not available.
8:26 AM 6:03 PM
Waning Gibbous, 73% visible
METAR LTBA 171020Z 36007KT 7000 -RA SCT040 OVC080 09/07 Q1017 NOSIG RMK RWY17L 01006KT RWY05 36006KT 280V030 RWY23 02006KT

Get Your Daily Forecast Email!

Thanks for signing up!

Be on the lookout for a verification email in your inbox.

You'll start receiving the daily forecast at 8 AM.

×

10-Day Weather Forecast

×

Almanac

ستاره شناسی

Jan. 17, 2017 Rise Set
وقت حقیقی
تاریک و روشن اجتماعی
تاریک روشن دریایی
شفق و فلق نجومی
ماه
میزان روشنایی روز
طول روز
Tomorrow will be .
, % of the Moon is Illuminated

Today's Extremes

Country Highs Country Lows

Community

WunderPhotos

Upload Photos

1,962,540 photos uploaded!

WunderBlog® & News

Nearby

تمیزی هوا

  تمیزی هوا AQ Index آلاینده
Not available.

عمق برف

Station Depth Elevation

Earthquake Activity

شهر Distance Mag. Time & Date
Minimum magnitude displayed is 2.5.

Coastal Water Temperatures

منطقه درجه حرارت

Stations

Nearby Weather Stations

Station Location دما باد سرد قطره شبنم رطوبت باد Precip. Elev ارتقا دادن Type